Terminal Aerodrome Forecast
Issued by NWS

Home | Current Version | Previous Version | Text Only | Print | Product List | Glossary On
Versions: 1 2 3 4 5 6 7 8 9 10 11 12 13 14 15 16 17 18 19 20
682
FTUS44 KBMX 271352 AAA
TAFTCL
TAF AMD
KTCL 271352Z 2714/2812 14006KT P6SM SCT011 BKN030
     FM271600 20010G15KT P6SM BKN050
     FM272000 20010G18KT P6SM VCTS BKN050CB
      TEMPO 2721/2801 2SM TSRA BKN025CB OVC050
     FM280600 22007KT 6SM BR OVC015=

USA.gov is the U.S. government's official web portal to all federal, state and local government web resources and services.